Nahodka, Russia
Current Conditions -  °F | °C
As of 3:30 PM on Saturday 25 Oct 2014 (Local Time) from UHWW Reporting Station
Broken Clouds Broken Clouds  
Wind Chill: 63°   Ceiling: 10000
Heat Index: 63°   Visibility: 6mi
Dew Point: 50°   Wind: 9mph
Humidity: 63%   Direction: 200°SSW
Pressure: 29.85"   Gusts: NA
Location:  42.83°N, 132.89°E
Report Text: UHWW 250530Z 20004MPS 9999 BKN100 17/10 Q1011 NOSIG RMKQFE757/1009 25CLRD70
Loading
Personal Weather Stations






























Interactive Weather Map
Tropical Storm Tracking
New forecast layout! Learn more

10-Day Weather Forecast

Advertisements
Track Severe Weather on mobile